Stockholm Bromma, Sweden

10:37 PM CEST on October 23, 2014 (GMT +0200)
Stora Ursvik | Change Station
CLOSE
Current Station
Personal Weather Station
Location: Sundbyberg, STOCKHOLM COUNTY
Elevation: 95 ft
Nearby Weather Stations

Elev 95 ft 59.38 °N, 17.95 °E | Updated 59 seconds ago

Overcast
Overcast
41.2 °F
Feels Like 39 °F
N
3.8
Wind Variable Wind from South
Gusts 4.5 mph

Today
High -- | Low -- °F
--% Chance of Precip.
Yesterday
High -- | Low -- °F
Precip. -- in
7:44 AM 5:19 PM
Waning Crescent, 0% visible
Pressure 30.30 in
Visibility 6.2 miles
Clouds Mostly Cloudy 3000 ft
Mostly Cloudy 5700 ft
Overcast 11000 ft
Windchill 39 °F
Dew Point 32 °F
Humidity 71%
Rainfall 0.00 in
Snow Depth Not available.
UV 0 out of 12
Pollen Not available.
Air Quality Not available.
Flu Activity Not available.
METAR ESSB 232020Z AUTO 15008KT 9999 BKN030/// BKN057/// OVC110/// 05/M00 Q1026

More Conditions Fewer Conditions

Pressure 30.30 in
Visibility 6.2 miles
Clouds Mostly Cloudy 3000 ft
Mostly Cloudy 5700 ft
Overcast 11000 ft
Windchill 39 °F
Dew Point 32 °F
Humidity 71%
Rainfall 0.00 in
Snow Depth Not available.
UV 0 out of 12
Pollen Not available.
Air Quality Not available.
Flu Activity Not available.
METAR ESSB 232020Z AUTO 15008KT 9999 BKN030/// BKN057/// OVC110/// 05/M00 Q1026

More Conditions Fewer Conditions

10-Day Weather Forecast

Almanac

Astronomy

Oct. 23, 2014 Rise Set
Actual Time 7:44 AM CEST 5:19 PM CEST
Civil Twilight 7:02 AM CEST 6:01 PM CEST
Nautical Twilight 6:14 AM CEST 6:48 PM CEST
Astronomical Twilight 5:27 AM CEST 7:36 PM CEST
Moon 6:59 AM CEST 5:13 PM CEST
Length of Visible Light 10h 58m
Length of Day
9h 34m
Tomorrow will be 5m 10s shorter.
Waning Crescent, 0% of the Moon is Illuminated
Today
Waning Crescent
Oct 23
New
Oct 30
First Quarter
Nov 6
Full
Nov 14
Last Quarter

Today's Extremes

Country Highs Country Lows

Community

WunderPhotos

Upload Photos

1,764,361 photos uploaded!

WunderBlogs® & News

By Dr. Jeff Masters
Director of Meteorology, Weather Underground
By Kari Strenfel
Meteorologist, Weather Underground
By Christopher C. Burt
Weather Historian, Weather Underground
October 23, 2014
October 23, 2014
October 23, 2014

Nearby

Snow Depth

Not available.

Earthquake Activity

City Distance Mag. Time & Date
No recent earthquake activity has been reported nearby.
Minimum magnitude displayed is 2.5.

Coastal Water Temperatures

Place Temperature
No Stations Reporting

Nearby Weather Stations